createdAt,value
2023-02-27T00:00:14.612Z,82.90
2023-02-27T00:02:45.583Z,83.20
2023-02-27T00:05:13.120Z,83.00
2023-02-27T00:07:39.938Z,83.10
2023-02-27T00:10:08.330Z,83.00
2023-02-27T00:12:37.726Z,83.20
2023-02-27T00:15:10.769Z,83.40
2023-02-27T00:17:37.564Z,83.60
2023-02-27T00:20:06.502Z,83.80
2023-02-27T00:22:33.145Z,84.40
2023-02-27T00:24:59.834Z,84.60
2023-02-27T00:27:26.464Z,84.90
2023-02-27T00:29:53.090Z,84.80
2023-02-27T00:32:19.974Z,84.30
2023-02-27T00:34:46.758Z,84.50
2023-02-27T00:37:13.364Z,84.30
2023-02-27T00:39:40.022Z,85.10
2023-02-27T00:42:06.740Z,85.40
2023-02-27T00:44:33.410Z,85.50
2023-02-27T00:47:00.116Z,85.80
2023-02-27T00:49:26.976Z,85.80
2023-02-27T00:51:54.281Z,85.80
2023-02-27T00:54:21.163Z,85.80
2023-02-27T00:56:47.765Z,86.00
2023-02-27T00:59:14.488Z,86.00
2023-02-27T01:01:41.309Z,86.10
2023-02-27T01:04:07.974Z,85.80
2023-02-27T01:06:34.670Z,85.80
2023-02-27T01:09:01.366Z,86.00
2023-02-27T01:11:28.652Z,85.70
2023-02-27T01:13:55.320Z,85.60
2023-02-27T01:16:22.160Z,85.20
2023-02-27T01:18:48.833Z,85.10
2023-02-27T01:21:16.535Z,85.40
2023-02-27T01:23:43.212Z,86.00
2023-02-27T01:26:10.024Z,86.10
2023-02-27T01:28:36.710Z,86.50
2023-02-27T01:31:03.490Z,86.90
2023-02-27T01:33:30.123Z,87.00
2023-02-27T01:35:56.824Z,87.10
2023-02-27T01:38:23.513Z,87.50
2023-02-27T01:40:50.194Z,87.70
2023-02-27T01:43:21.325Z,88.00
2023-02-27T01:45:49.041Z,88.40
2023-02-27T01:48:37.621Z,88.40
2023-02-27T01:51:21.753Z,88.60
2023-02-27T01:53:51.178Z,89.00
2023-02-27T01:56:24.139Z,89.10
2023-02-27T01:58:53.348Z,89.10
2023-02-27T02:01:21.928Z,89.50
2023-02-27T02:04:00.169Z,89.70
2023-02-27T02:06:29.898Z,89.60
2023-02-27T02:08:58.555Z,89.80
2023-02-27T02:11:28.815Z,90.10
2023-02-27T02:14:01.340Z,90.20
2023-02-27T02:17:01.087Z,90.50
2023-02-27T02:20:07.563Z,90.50
2023-02-27T02:22:55.736Z,90.70
2023-02-27T02:25:59.929Z,90.50
2023-02-27T02:28:45.361Z,90.70
2023-02-27T02:31:21.039Z,90.70
2023-02-27T02:34:07.726Z,90.80
2023-02-27T02:36:58.475Z,90.90
2023-02-27T02:39:34.165Z,91.00
2023-02-27T02:42:09.647Z,91.10
2023-02-27T02:45:14.125Z,91.30
2023-02-27T02:48:08.611Z,91.60
2023-02-27T02:50:48.762Z,91.60
2023-02-27T02:53:36.047Z,91.40
2023-02-27T02:56:19.640Z,91.40
2023-02-27T02:59:08.884Z,91.50
2023-02-27T03:01:56.455Z,91.80
2023-02-27T03:04:38.814Z,91.70
2023-02-27T03:07:13.855Z,91.50
2023-02-27T03:09:48.199Z,91.60
2023-02-27T03:12:19.634Z,91.80
2023-02-27T03:15:18.052Z,91.90
2023-02-27T03:18:04.824Z,92.00
2023-02-27T03:20:37.437Z,92.20
2023-02-27T03:23:10.875Z,92.40
2023-02-27T03:25:38.821Z,92.60
2023-02-27T03:28:09.508Z,92.60
2023-02-27T03:30:40.498Z,92.40
2023-02-27T03:33:11.623Z,92.40
2023-02-27T03:35:59.468Z,92.70
2023-02-27T03:38:48.250Z,92.90
2023-02-27T03:41:36.722Z,92.80
2023-02-27T03:44:29.469Z,92.80
2023-02-27T03:46:56.709Z,92.60
2023-02-27T03:49:23.342Z,92.60
2023-02-27T03:51:50.212Z,92.70
2023-02-27T03:54:24.957Z,92.60
2023-02-27T03:57:05.017Z,92.80
2023-02-27T03:59:32.606Z,92.90
2023-02-27T04:02:01.789Z,93.00
2023-02-27T04:04:31.940Z,93.10
2023-02-27T04:07:22.581Z,93.10
2023-02-27T04:10:07.456Z,93.00
2023-02-27T04:13:09.157Z,92.70
2023-02-27T04:15:54.016Z,92.80
2023-02-27T04:18:29.723Z,93.10
2023-02-27T04:21:09.499Z,93.40
2023-02-27T04:23:50.267Z,93.50
2023-02-27T04:26:27.834Z,93.50
2023-02-27T04:29:05.748Z,93.30
2023-02-27T04:31:52.723Z,93.40
2023-02-27T04:34:38.167Z,93.50
2023-02-27T04:37:17.158Z,93.60
2023-02-27T04:39:51.808Z,93.50
2023-02-27T04:42:24.140Z,93.60
2023-02-27T04:44:54.796Z,93.50
2023-02-27T04:47:24.135Z,93.50
2023-02-27T04:49:56.904Z,93.70
2023-02-27T04:52:30.954Z,93.60
2023-02-27T04:55:09.910Z,93.90
2023-02-27T04:57:52.966Z,94.10
2023-02-27T05:00:23.293Z,93.90
2023-02-27T05:02:56.008Z,94.10
2023-02-27T05:05:26.633Z,94.10
2023-02-27T05:08:05.453Z,93.90
2023-02-27T05:10:36.376Z,93.70
2023-02-27T05:13:22.580Z,93.70
2023-02-27T05:15:56.310Z,93.60
2023-02-27T05:18:23.672Z,93.70
2023-02-27T05:20:59.330Z,93.80
2023-02-27T05:23:40.776Z,93.90
2023-02-27T05:26:22.178Z,94.00
2023-02-27T05:28:58.382Z,94.30
2023-02-27T05:31:32.995Z,94.20
2023-02-27T05:34:07.353Z,93.80
2023-02-27T05:36:48.574Z,93.90
2023-02-27T05:39:19.079Z,94.20
2023-02-27T05:42:12.949Z,94.10
2023-02-27T05:44:45.105Z,93.90
2023-02-27T05:47:16.774Z,94.20
2023-02-27T05:49:58.214Z,94.00
2023-02-27T05:52:27.557Z,94.20
2023-02-27T05:55:01.647Z,94.20
2023-02-27T05:57:40.800Z,94.00
2023-02-27T06:00:30.051Z,94.00
2023-02-27T06:02:56.867Z,94.20
2023-02-27T06:05:25.847Z,94.30
2023-02-27T06:07:52.637Z,94.50
2023-02-27T06:10:21.208Z,94.40
2023-02-27T06:12:48.303Z,97.30
2023-02-27T06:15:15.145Z,94.50
2023-02-27T06:17:41.799Z,94.30
2023-02-27T06:20:09.807Z,94.40
2023-02-27T06:22:36.525Z,94.50
2023-02-27T06:25:03.895Z,94.50
2023-02-27T06:27:30.815Z,94.60
2023-02-27T06:29:57.680Z,94.60
2023-02-27T06:32:25.747Z,94.50
2023-02-27T06:34:53.310Z,94.50
2023-02-27T06:37:21.725Z,94.60
2023-02-27T06:39:48.558Z,94.30
2023-02-27T06:42:15.477Z,94.30
2023-02-27T06:44:42.248Z,94.40
2023-02-27T06:47:09.163Z,94.10
2023-02-27T06:49:36.068Z,94.00
2023-02-27T06:52:02.694Z,94.10
2023-02-27T06:54:29.432Z,94.00
2023-02-27T06:56:56.300Z,93.80
2023-02-27T06:59:23.001Z,93.80
2023-02-27T07:01:50.074Z,93.50
2023-02-27T07:04:17.019Z,93.40
2023-02-27T07:07:34.860Z,93.20
2023-02-27T07:09:30.709Z,92.90
2023-02-27T07:11:57.418Z,92.70
2023-02-27T07:14:25.631Z,92.50
2023-02-27T07:16:56.556Z,92.40
2023-02-27T07:19:24.249Z,92.10
2023-02-27T07:21:51.361Z,91.60
2023-02-27T07:24:18.259Z,91.10
2023-02-27T07:26:44.953Z,90.90
2023-02-27T07:29:11.944Z,90.60
2023-02-27T07:31:38.734Z,90.20
2023-02-27T07:34:05.708Z,89.40
2023-02-27T07:36:33.865Z,88.30
2023-02-27T07:39:00.513Z,88.50
2023-02-27T07:41:30.718Z,87.00
2023-02-27T07:43:58.066Z,85.90
2023-02-27T07:46:27.414Z,85.80
2023-02-27T07:48:54.983Z,84.80
2023-02-27T07:51:21.850Z,84.60
2023-02-27T07:53:48.515Z,84.60
2023-02-27T07:56:15.284Z,83.90
2023-02-27T07:58:41.994Z,83.70
2023-02-27T08:01:08.679Z,84.10
2023-02-27T08:03:35.324Z,83.30
2023-02-27T08:06:02.491Z,82.90
2023-02-27T08:08:30.838Z,83.00
2023-02-27T08:10:57.579Z,82.40
2023-02-27T08:13:55.821Z,82.10
2023-02-27T08:16:11.412Z,81.00
2023-02-27T08:18:38.471Z,80.90
2023-02-27T08:21:05.541Z,79.90
2023-02-27T08:23:34.423Z,79.60
2023-02-27T08:26:02.443Z,79.60
2023-02-27T08:28:29.976Z,78.90
2023-02-27T08:30:56.705Z,78.60
2023-02-27T08:33:24.086Z,78.80
2023-02-27T08:35:50.927Z,77.70
2023-02-27T08:38:17.700Z,77.10
2023-02-27T08:40:44.349Z,77.10
2023-02-27T08:43:11.003Z,77.10
2023-02-27T08:45:37.841Z,76.90
2023-02-27T08:48:04.753Z,76.50
2023-02-27T08:50:31.424Z,76.20
2023-02-27T08:52:58.100Z,74.50
2023-02-27T08:55:24.740Z,74.90
2023-02-27T08:57:51.379Z,75.40
2023-02-27T09:00:18.563Z,75.00
2023-02-27T09:02:45.374Z,74.90
2023-02-27T09:05:12.039Z,74.00
2023-02-27T09:07:38.716Z,73.40
2023-02-27T09:10:07.165Z,72.50
2023-02-27T09:12:33.975Z,71.70
2023-02-27T09:15:00.777Z,72.70
2023-02-27T09:17:27.518Z,72.10
2023-02-27T09:19:56.522Z,70.80
2023-02-27T09:22:24.485Z,70.60
2023-02-27T09:24:51.253Z,69.70
2023-02-27T09:27:18.004Z,68.80
2023-02-27T09:29:44.713Z,69.00
2023-02-27T09:32:12.505Z,69.10
2023-02-27T09:34:39.368Z,68.40
2023-02-27T09:37:06.072Z,68.50
2023-02-27T09:39:32.812Z,69.80
2023-02-27T09:42:02.285Z,68.40
2023-02-27T09:44:47.687Z,68.30
2023-02-27T09:47:16.974Z,66.40
2023-02-27T09:49:54.669Z,66.80
2023-02-27T09:52:21.650Z,65.10
2023-02-27T09:54:49.298Z,65.40
2023-02-27T09:57:24.483Z,65.80
2023-02-27T09:59:56.413Z,65.00
2023-02-27T10:02:49.559Z,63.90
2023-02-27T10:05:22.318Z,63.80
2023-02-27T10:08:09.318Z,64.30
2023-02-27T10:10:36.006Z,64.80
2023-02-27T10:13:21.431Z,64.00
2023-02-27T10:15:50.253Z,63.90
2023-02-27T10:18:30.842Z,62.80
2023-02-27T10:21:07.385Z,63.10
2023-02-27T10:23:54.969Z,64.30
2023-02-27T10:26:26.384Z,64.40
2023-02-27T10:28:53.384Z,63.50
2023-02-27T10:31:24.413Z,63.70
2023-02-27T10:33:52.063Z,62.70
2023-02-27T10:36:33.077Z,62.90
2023-02-27T10:39:08.018Z,61.60
2023-02-27T10:41:37.493Z,62.20
2023-02-27T10:44:05.047Z,61.40
2023-02-27T10:46:34.616Z,61.70
2023-02-27T10:49:10.316Z,61.30
2023-02-27T10:51:38.549Z,62.00
2023-02-27T10:54:22.060Z,62.30
2023-02-27T10:56:54.861Z,61.40
2023-02-27T10:59:31.456Z,61.30
2023-02-27T11:02:04.783Z,62.50
2023-02-27T11:04:33.588Z,60.90
2023-02-27T11:07:03.273Z,60.80
2023-02-27T11:09:34.713Z,61.00
2023-02-27T11:12:26.562Z,62.00
2023-02-27T11:14:55.942Z,61.00
2023-02-27T11:17:34.210Z,60.50
2023-02-27T11:20:02.219Z,58.70
2023-02-27T11:22:30.818Z,58.40
2023-02-27T11:25:23.214Z,58.20
2023-02-27T11:27:51.993Z,57.50
2023-02-27T11:30:27.946Z,57.30
2023-02-27T11:32:59.708Z,57.40
2023-02-27T11:35:36.914Z,58.00
2023-02-27T11:38:16.465Z,58.30
2023-02-27T11:40:57.346Z,59.60
2023-02-27T11:43:30.705Z,59.30
2023-02-27T11:46:04.413Z,58.80
2023-02-27T11:48:50.726Z,57.80
2023-02-27T11:51:24.919Z,58.60
2023-02-27T11:53:54.406Z,58.60
2023-02-27T11:56:43.644Z,58.90
2023-02-27T11:59:16.641Z,58.20
2023-02-27T12:01:55.387Z,58.20
2023-02-27T12:04:26.419Z,58.10
2023-02-27T12:07:03.747Z,58.20
2023-02-27T12:09:36.164Z,58.60
2023-02-27T12:12:11.563Z,58.60
2023-02-27T12:14:44.261Z,59.10
2023-02-27T12:17:42.136Z,58.40
2023-02-27T12:20:27.409Z,57.20
2023-02-27T12:22:55.253Z,57.50
2023-02-27T12:25:52.479Z,58.20
2023-02-27T12:28:24.066Z,57.40
2023-02-27T12:31:28.094Z,56.80
2023-02-27T12:34:30.688Z,56.80
2023-02-27T12:37:10.256Z,56.70
2023-02-27T12:39:38.431Z,57.70
2023-02-27T12:42:17.349Z,57.60
2023-02-27T12:45:02.239Z,57.70
2023-02-27T12:48:13.714Z,57.60
2023-02-27T12:51:12.443Z,57.50
2023-02-27T12:53:51.740Z,58.00
2023-02-27T12:56:23.206Z,58.50
2023-02-27T12:59:17.465Z,57.90
2023-02-27T13:02:35.050Z,58.30
2023-02-27T13:05:40.635Z,58.90
2023-02-27T13:08:22.855Z,58.80
2023-02-27T13:10:56.787Z,58.50
2023-02-27T13:13:36.036Z,58.50
2023-02-27T13:16:07.393Z,58.70
2023-02-27T13:18:46.696Z,58.10
2023-02-27T13:21:24.925Z,58.20
2023-02-27T13:24:28.299Z,58.30
2023-02-27T13:27:06.650Z,58.70
2023-02-27T13:29:48.969Z,58.50
2023-02-27T13:32:15.764Z,58.60
2023-02-27T13:34:52.441Z,59.00
2023-02-27T13:37:19.330Z,58.80
2023-02-27T13:39:46.880Z,58.20
2023-02-27T13:42:26.138Z,58.10
2023-02-27T13:45:06.219Z,57.80
2023-02-27T13:47:41.003Z,58.20
2023-02-27T13:50:22.939Z,58.10
2023-02-27T13:52:50.155Z,58.50
2023-02-27T13:55:31.177Z,59.00
2023-02-27T13:57:59.958Z,58.90
2023-02-27T14:00:29.449Z,58.70
2023-02-27T14:03:18.710Z,58.90
2023-02-27T14:05:47.545Z,58.40
2023-02-27T14:08:23.248Z,58.00
2023-02-27T14:11:17.701Z,58.30
2023-02-27T14:13:50.705Z,58.30
2023-02-27T14:16:39.795Z,57.40
2023-02-27T14:19:15.294Z,57.60
2023-02-27T14:21:58.938Z,57.70
2023-02-27T14:24:41.339Z,57.70
2023-02-27T14:27:29.060Z,57.60
2023-02-27T14:30:00.613Z,58.20
2023-02-27T14:32:33.638Z,59.60
2023-02-27T14:35:03.074Z,57.90
2023-02-27T14:37:30.669Z,57.10
2023-02-27T14:40:01.227Z,57.50
2023-02-27T14:43:03.529Z,57.90
2023-02-27T14:45:31.465Z,58.00
2023-02-27T14:47:59.048Z,58.40
2023-02-27T14:50:28.230Z,59.20
2023-02-27T14:52:54.941Z,58.60
2023-02-27T14:55:29.512Z,58.70
2023-02-27T14:58:18.219Z,59.30
2023-02-27T15:00:51.474Z,59.20
2023-02-27T15:03:18.138Z,59.40
2023-02-27T15:05:46.342Z,59.20
2023-02-27T15:08:20.486Z,58.30
2023-02-27T15:10:47.620Z,57.70
2023-02-27T15:13:29.208Z,57.90
2023-02-27T15:16:23.713Z,58.50
2023-02-27T15:18:53.532Z,58.60
2023-02-27T15:21:22.995Z,59.10
2023-02-27T15:24:22.423Z,59.10
2023-02-27T15:26:54.604Z,59.30
2023-02-27T15:29:31.938Z,58.80
2023-02-27T15:31:58.848Z,58.60
2023-02-27T15:34:25.739Z,59.30
2023-02-27T15:36:55.095Z,59.40
2023-02-27T15:39:31.274Z,60.10
2023-02-27T15:42:08.530Z,61.20
2023-02-27T15:44:44.464Z,60.20
2023-02-27T15:47:23.074Z,60.10
2023-02-27T15:49:55.360Z,59.50
2023-02-27T15:52:24.945Z,58.80
2023-02-27T15:54:54.396Z,59.30
2023-02-27T15:57:22.874Z,58.90
2023-02-27T15:59:51.066Z,58.70
2023-02-27T16:02:43.151Z,58.30
2023-02-27T16:05:19.735Z,58.00
2023-02-27T16:07:47.102Z,58.40
2023-02-27T16:10:22.921Z,58.40
2023-02-27T16:12:49.776Z,58.60
2023-02-27T16:15:22.970Z,58.80
2023-02-27T16:18:12.730Z,59.30
2023-02-27T16:20:42.137Z,59.10
2023-02-27T16:23:28.030Z,58.30
2023-02-27T16:26:30.605Z,58.10
2023-02-27T16:29:05.395Z,57.60
2023-02-27T16:31:46.127Z,58.00
2023-02-27T16:34:12.825Z,57.90
2023-02-27T16:36:52.719Z,58.00
2023-02-27T16:39:19.405Z,58.10
2023-02-27T16:41:46.201Z,57.60
2023-02-27T16:44:13.081Z,57.30
2023-02-27T16:46:39.854Z,57.20
2023-02-27T16:49:19.253Z,57.30
2023-02-27T16:51:46.989Z,57.90
2023-02-27T16:54:15.467Z,58.10
2023-02-27T16:56:44.369Z,57.80
2023-02-27T16:59:36.416Z,58.00
2023-02-27T17:02:06.490Z,57.20
2023-02-27T17:04:33.424Z,57.60
2023-02-27T17:07:01.464Z,57.50
2023-02-27T17:09:29.243Z,57.50
2023-02-27T17:11:57.116Z,57.50
2023-02-27T17:14:24.788Z,57.50
2023-02-27T17:16:51.752Z,57.20
2023-02-27T17:19:21.283Z,56.80
2023-02-27T17:21:48.416Z,57.00
2023-02-27T17:24:15.149Z,56.60
2023-02-27T17:26:41.986Z,56.90
2023-02-27T17:29:09.677Z,56.90
2023-02-27T17:31:37.077Z,57.00
2023-02-27T17:34:05.467Z,56.80
2023-02-27T17:36:32.373Z,56.50
2023-02-27T17:39:02.526Z,56.60
2023-02-27T17:41:30.563Z,56.80
2023-02-27T17:43:58.821Z,56.80
2023-02-27T17:46:28.058Z,56.90
2023-02-27T17:48:56.226Z,57.20
2023-02-27T17:51:23.082Z,56.80
2023-02-27T17:53:49.821Z,56.90
2023-02-27T17:56:16.517Z,57.30
2023-02-27T17:58:45.437Z,57.20
2023-02-27T18:01:15.465Z,58.00
2023-02-27T18:03:44.197Z,58.00
2023-02-27T18:06:10.958Z,58.20
2023-02-27T18:08:37.711Z,58.30
2023-02-27T18:11:04.652Z,58.20
2023-02-27T18:13:31.357Z,58.20
2023-02-27T18:15:58.202Z,57.80
2023-02-27T18:18:24.987Z,58.00
2023-02-27T18:21:03.153Z,57.40
2023-02-27T18:23:30.311Z,57.20
2023-02-27T18:25:58.164Z,57.60
2023-02-27T18:28:25.468Z,58.00
2023-02-27T18:30:52.697Z,58.10
2023-02-27T18:33:19.719Z,58.00
2023-02-27T18:35:47.422Z,58.10
2023-02-27T18:38:14.458Z,58.00
2023-02-27T18:40:42.629Z,58.10
2023-02-27T18:43:10.531Z,57.00
2023-02-27T18:45:37.847Z,57.60
2023-02-27T18:48:04.782Z,57.70
2023-02-27T18:50:31.498Z,57.50
2023-02-27T18:52:59.188Z,57.80
2023-02-27T18:55:26.533Z,58.20
2023-02-27T18:57:53.304Z,58.40
2023-02-27T19:00:21.815Z,58.90
2023-02-27T19:02:48.575Z,58.50
2023-02-27T19:05:15.365Z,58.70
2023-02-27T19:07:42.513Z,58.80
2023-02-27T19:10:09.992Z,58.90
2023-02-27T19:12:36.951Z,58.70
2023-02-27T19:15:05.015Z,58.80
2023-02-27T19:17:32.405Z,58.80
2023-02-27T19:19:59.466Z,58.90
2023-02-27T19:22:30.396Z,59.00
2023-02-27T19:24:57.297Z,58.90
2023-02-27T19:27:24.212Z,58.90
2023-02-27T19:29:51.596Z,59.00
2023-02-27T19:32:18.513Z,59.00
2023-02-27T19:34:45.408Z,59.00
2023-02-27T19:37:12.247Z,58.70
2023-02-27T19:39:38.998Z,58.50
2023-02-27T19:42:05.924Z,58.90
2023-02-27T19:44:32.724Z,58.70
2023-02-27T19:47:00.284Z,58.70
2023-02-27T19:49:27.108Z,59.00
2023-02-27T19:51:53.867Z,59.10
2023-02-27T19:54:20.699Z,58.90
2023-02-27T19:56:47.762Z,59.00
2023-02-27T19:59:14.649Z,59.00
2023-02-27T20:01:41.824Z,59.40
2023-02-27T20:04:09.043Z,59.50
2023-02-27T20:06:42.133Z,59.30
2023-02-27T20:09:15.316Z,59.20
2023-02-27T20:11:43.574Z,59.40
2023-02-27T20:14:10.940Z,59.70
2023-02-27T20:16:38.181Z,59.70
2023-02-27T20:19:06.086Z,59.70
2023-02-27T20:21:34.571Z,60.20
2023-02-27T20:24:01.402Z,59.80
2023-02-27T20:26:31.873Z,60.10
2023-02-27T20:29:08.594Z,60.60
2023-02-27T20:31:37.347Z,61.00
2023-02-27T20:34:06.140Z,61.30
2023-02-27T20:36:36.111Z,61.80
2023-02-27T20:39:04.544Z,61.50
2023-02-27T20:41:33.145Z,61.40
2023-02-27T20:44:00.908Z,64.30
2023-02-27T20:46:29.193Z,62.00
2023-02-27T20:48:59.394Z,61.60
2023-02-27T20:51:29.243Z,61.90
2023-02-27T20:53:59.662Z,61.60
2023-02-27T20:56:40.576Z,61.80
2023-02-27T20:59:10.526Z,61.60
2023-02-27T21:01:38.550Z,61.80
2023-02-27T21:04:06.009Z,61.80
2023-02-27T21:06:32.919Z,61.70
2023-02-27T21:09:05.436Z,61.90
2023-02-27T21:11:33.581Z,62.20
2023-02-27T21:14:05.068Z,61.90
2023-02-27T21:16:32.335Z,61.80
2023-02-27T21:18:59.342Z,62.70
2023-02-27T21:21:29.453Z,62.90
2023-02-27T21:23:56.732Z,62.70
2023-02-27T21:26:27.021Z,62.50
2023-02-27T21:28:57.580Z,62.60
2023-02-27T21:31:25.899Z,63.10
2023-02-27T21:33:53.955Z,63.10
2023-02-27T21:36:26.587Z,63.10
2023-02-27T21:39:18.304Z,63.50
2023-02-27T21:41:45.932Z,63.80
2023-02-27T21:44:15.247Z,63.90
2023-02-27T21:46:42.011Z,64.10
2023-02-27T21:49:09.347Z,63.90
2023-02-27T21:51:41.033Z,64.00
2023-02-27T21:54:11.140Z,64.20
2023-02-27T21:56:39.229Z,64.50
2023-02-27T21:59:06.068Z,64.50
2023-02-27T22:01:33.604Z,64.10
2023-02-27T22:04:01.898Z,64.40
2023-02-27T22:06:32.029Z,64.70
2023-02-27T22:09:01.324Z,65.00
2023-02-27T22:11:29.267Z,65.20
2023-02-27T22:13:56.476Z,65.10
2023-02-27T22:16:23.820Z,65.30
2023-02-27T22:18:51.495Z,65.70
2023-02-27T22:21:21.611Z,65.90
2023-02-27T22:23:48.740Z,66.10
2023-02-27T22:26:19.042Z,66.10
2023-02-27T22:28:46.435Z,66.00
2023-02-27T22:31:18.514Z,65.70
2023-02-27T22:33:47.890Z,66.20
2023-02-27T22:36:20.260Z,66.60
2023-02-27T22:38:48.158Z,66.80
2023-02-27T22:41:24.285Z,67.00
2023-02-27T22:43:51.485Z,67.10
2023-02-27T22:46:26.694Z,67.10
2023-02-27T22:48:57.571Z,67.30
2023-02-27T22:51:27.650Z,67.30
2023-02-27T22:53:56.270Z,67.30
2023-02-27T22:56:23.886Z,67.30
2023-02-27T22:58:50.801Z,67.50
2023-02-27T23:01:24.499Z,67.90
2023-02-27T23:03:53.257Z,68.00
2023-02-27T23:06:23.611Z,68.10
2023-02-27T23:08:50.370Z,68.10
2023-02-27T23:11:19.505Z,68.20
2023-02-27T23:13:46.449Z,68.30
2023-02-27T23:16:18.314Z,68.60
2023-02-27T23:18:49.302Z,68.90
2023-02-27T23:21:19.376Z,69.20
2023-02-27T23:23:46.905Z,68.80
2023-02-27T23:26:14.270Z,68.80
2023-02-27T23:28:40.954Z,69.10
2023-02-27T23:31:08.605Z,69.50
2023-02-27T23:33:35.570Z,69.50
2023-02-27T23:36:02.556Z,69.80
2023-02-27T23:38:29.446Z,70.00
2023-02-27T23:40:56.445Z,70.20
2023-02-27T23:43:23.269Z,70.60
2023-02-27T23:45:50.197Z,71.50
2023-02-27T23:48:16.926Z,71.00
2023-02-27T23:50:44.966Z,70.90
2023-02-27T23:53:13.371Z,71.10
2023-02-27T23:55:41.087Z,71.60
2023-02-27T23:58:10.096Z,72.00
